Time;durP1;ratioP1;P1;durP2;ratioP2;P2;SDS_P1;SDS_P2;PMS_P1;PMS_P2;Temp;Humidity;BMP_temperature;BMP_pressure;BME280_temperature;BME280_humidity;BME280_pressure;Samples;Min_cycle;Max_cycle;Signal;HPM_P1;HPM_P2
2023/03/18 00:00:47;;;;;;;8.77;7.20;;;12.50;99.90;;;;;;4893505;29;20230;-70
2023/03/18 00:03:14;;;;;;;7.97;7.10;;;12.50;99.90;;;;;;4894166;29;20552;-71
2023/03/18 00:05:41;;;;;;;8.68;7.32;;;12.50;99.90;;;;;;4888172;29;20202;-70
2023/03/18 00:08:09;;;;;;;8.48;7.47;;;12.50;99.90;;;;;;4896935;29;20206;-70
2023/03/18 00:10:36;;;;;;;7.70;6.67;;;12.50;99.90;;;;;;4893335;29;20217;-70
2023/03/18 00:13:04;;;;;;;10.77;7.15;;;12.40;99.90;;;;;;4894779;29;20471;-71
2023/03/18 00:15:31;;;;;;;9.57;7.78;;;12.40;99.90;;;;;;4893033;29;20203;-71
2023/03/18 00:17:59;;;;;;;7.60;6.50;;;12.30;99.90;;;;;;4894789;29;20206;-71
2023/03/18 00:20:37;;;;;;;10.70;7.00;;;12.20;99.90;;;;;;4888203;29;20948;-70
2023/03/18 00:23:07;;;;;;;8.17;6.20;;;12.10;99.90;;;;;;4884762;29;20502;-71
2023/03/18 00:25:34;;;;;;;9.57;6.30;;;12.10;99.90;;;;;;4895046;29;20501;-71
2023/03/18 00:28:02;;;;;;;7.38;6.38;;;12.10;99.90;;;;;;4894434;29;20613;-71
2023/03/18 00:30:29;;;;;;;7.00;4.63;;;12.10;99.90;;;;;;4895794;29;20210;-70
2023/03/18 00:32:57;;;;;;;6.17;4.27;;;12.10;99.90;;;;;;4895085;29;20475;-71
2023/03/18 00:35:29;;;;;;;4.78;3.28;;;12.20;99.60;;;;;;4885683;29;20467;-71
2023/03/18 00:37:57;;;;;;;4.03;3.10;;;12.30;98.60;;;;;;4881898;29;20211;-71
2023/03/18 00:40:28;;;;;;;4.87;3.27;;;12.40;98.00;;;;;;4892803;29;20202;-71
2023/03/18 00:43:06;;;;;;;5.30;3.43;;;12.50;96.80;;;;;;4889343;29;20518;-71
2023/03/18 00:45:36;;;;;;;4.60;4.20;;;12.60;97.90;;;;;;4889375;29;20477;-71
2023/03/18 00:48:03;;;;;;;4.50;3.23;;;12.60;97.70;;;;;;4896210;29;20474;-71
2023/03/18 00:50:32;;;;;;;4.83;3.43;;;12.70;96.60;;;;;;4894620;29;20513;-71
2023/03/18 00:52:59;;;;;;;4.00;3.40;;;12.80;96.70;;;;;;4894858;29;20510;-71
2023/03/18 00:55:27;;;;;;;4.43;3.63;;;12.80;96.60;;;;;;4893694;29;20462;-71
2023/03/18 00:57:54;;;;;;;4.23;3.47;;;12.80;96.60;;;;;;4895368;29;20455;-71
2023/03/18 01:00:24;;;;;;;3.13;2.70;;;12.80;96.10;;;;;;4893537;29;20956;-71
2023/03/18 01:02:51;;;;;;;5.20;2.70;;;12.80;95.20;;;;;;4895905;29;20963;-71
2023/03/18 01:05:18;;;;;;;3.03;2.60;;;12.90;95.20;;;;;;4895373;29;20520;-71
2023/03/18 01:07:48;;;;;;;3.47;2.97;;;12.90;94.90;;;;;;4895078;29;20467;-71
2023/03/18 01:10:15;;;;;;;4.77;3.30;;;12.90;95.20;;;;;;4885227;29;20468;-71
2023/03/18 01:12:45;;;;;;;2.97;2.63;;;12.90;94.90;;;;;;4892548;29;20827;-71
2023/03/18 01:15:15;;;;;;;3.27;2.87;;;12.90;94.90;;;;;;4893337;29;20482;-71
2023/03/18 01:17:43;;;;;;;3.30;2.40;;;12.90;94.80;;;;;;4896261;29;20503;-71
2023/03/18 01:20:13;;;;;;;2.90;2.53;;;12.90;94.70;;;;;;4894205;29;20547;-71
2023/03/18 01:22:41;;;;;;;2.40;2.20;;;12.90;94.70;;;;;;4895899;29;20523;-71
2023/03/18 01:25:11;;;;;;;4.17;2.70;;;12.80;94.70;;;;;;4888530;29;20463;-71
2023/03/18 01:27:39;;;;;;;5.70;3.67;;;12.80;94.70;;;;;;4892553;29;20459;-71
2023/03/18 01:30:08;;;;;;;3.73;3.33;;;12.80;95.60;;;;;;4893640;29;20467;-71
2023/03/18 01:32:36;;;;;;;3.20;2.90;;;12.80;95.90;;;;;;4892963;29;21070;-70
2023/03/18 01:35:05;;;;;;;3.30;3.00;;;12.70;95.80;;;;;;4882138;29;20554;-71
2023/03/18 01:37:32;;;;;;;3.33;3.03;;;12.70;96.00;;;;;;4891674;29;20458;-71
2023/03/18 01:39:59;;;;;;;4.40;3.10;;;12.60;96.00;;;;;;4891536;29;20462;-71
2023/03/18 01:42:28;;;;;;;3.57;2.83;;;12.60;96.20;;;;;;4891134;29;21034;-71
2023/03/18 01:45:16;;;;;;;4.53;3.37;;;12.50;95.90;;;;;;4894342;29;20482;-71
2023/03/18 01:47:45;;;;;;;4.53;3.00;;;12.50;96.20;;;;;;4894534;29;20450;-71
2023/03/18 01:50:14;;;;;;;3.23;2.93;;;12.50;96.00;;;;;;4890905;29;20476;-71
2023/03/18 01:52:43;;;;;;;4.40;3.10;;;12.60;95.60;;;;;;4891018;29;20602;-70
2023/03/18 01:55:15;;;;;;;3.00;2.77;;;12.40;95.60;;;;;;4889040;29;20551;-71
2023/03/18 01:57:45;;;;;;;4.05;3.65;;;12.40;96.10;;;;;;4887831;29;20466;-71
2023/03/18 02:00:15;;;;;;;5.20;3.53;;;12.40;96.20;;;;;;4893971;29;20198;-71
2023/03/18 02:02:44;;;;;;;2.97;2.67;;;12.40;96.10;;;;;;4881930;29;20313;-71
2023/03/18 02:05:15;;;;;;;3.00;2.10;;;12.40;95.60;;;;;;4888102;29;20550;-71
2023/03/18 02:07:43;;;;;;;2.47;2.20;;;12.40;95.10;;;;;;4887819;29;20612;-71
2023/03/18 02:10:14;;;;;;;2.20;2.00;;;12.50;95.10;;;;;;4892484;29;20471;-71
2023/03/18 02:12:46;;;;;;;2.45;2.25;;;12.50;94.90;;;;;;4891611;29;20470;-71
2023/03/18 02:15:15;;;;;;;2.63;1.67;;;12.50;94.90;;;;;;4895310;29;20210;-71
2023/03/18 02:17:46;;;;;;;2.27;1.67;;;12.50;94.70;;;;;;4893411;29;20747;-71
2023/03/18 02:20:27;;;;;;;2.35;2.00;;;12.50;94.50;;;;;;4895103;29;20502;-71
2023/03/18 02:22:59;;;;;;;2.45;1.70;;;12.50;94.50;;;;;;4893541;29;20214;-71
2023/03/18 02:25:36;;;;;;;3.07;1.97;;;12.50;94.50;;;;;;4892908;29;20201;-72
2023/03/18 02:28:08;;;;;;;1.70;1.40;;;12.50;94.90;;;;;;4889532;29;20494;-71
2023/03/18 02:30:39;;;;;;;1.85;1.42;;;12.40;95.20;;;;;;4890341;29;20606;-71
2023/03/18 02:33:08;;;;;;;2.13;1.90;;;12.40;95.30;;;;;;4889611;29;20309;-71
2023/03/18 02:35:36;;;;;;;2.17;1.65;;;12.30;94.80;;;;;;4894016;29;20554;-71
2023/03/18 02:38:04;;;;;;;2.80;1.70;;;12.20;94.80;;;;;;4893004;29;20718;-71
2023/03/18 02:40:33;;;;;;;1.55;1.42;;;12.20;95.00;;;;;;4892734;29;20519;-71
2023/03/18 02:43:18;;;;;;;1.52;1.40;;;12.20;95.10;;;;;;4891147;29;20222;-71
2023/03/18 02:46:08;;;;;;;1.70;1.60;;;12.10;95.20;;;;;;4897350;29;20238;-72
2023/03/18 02:48:37;;;;;;;3.03;1.70;;;12.10;95.20;;;;;;4889827;29;20202;-71
2023/03/18 02:51:06;;;;;;;2.65;2.10;;;12.10;95.30;;;;;;4897878;29;20738;-71
2023/03/18 02:53:34;;;;;;;2.75;1.80;;;12.00;95.30;;;;;;4892731;29;20232;-71
2023/03/18 02:56:01;;;;;;;2.80;1.70;;;12.00;95.40;;;;;;4891916;29;20215;-71
2023/03/18 02:58:30;;;;;;;1.85;1.75;;;12.00;95.40;;;;;;4895434;29;20198;-71
2023/03/18 03:00:57;;;;;;;2.78;1.60;;;12.00;95.70;;;;;;4897500;29;20210;-71
2023/03/18 03:03:25;;;;;;;2.15;1.55;;;12.00;95.70;;;;;;4897295;29;20230;-71
2023/03/18 03:05:52;;;;;;;2.90;1.25;;;11.90;96.00;;;;;;4896728;29;20684;-71
2023/03/18 03:08:19;;;;;;;2.25;1.65;;;11.80;95.70;;;;;;4896895;29;20198;-71
2023/03/18 03:10:47;;;;;;;2.88;1.80;;;11.80;96.00;;;;;;4894254;29;20524;-71
2023/03/18 03:13:14;;;;;;;2.30;1.60;;;11.80;95.70;;;;;;4893444;29;20226;-71
2023/03/18 03:15:43;;;;;;;2.53;1.98;;;11.80;95.80;;;;;;4896845;29;20206;-71
2023/03/18 03:18:10;;;;;;;4.95;1.83;;;11.70;96.60;;;;;;4894035;29;20663;-71
2023/03/18 03:20:38;;;;;;;3.50;2.15;;;11.60;97.30;;;;;;4895521;29;20205;-71
2023/03/18 03:23:06;;;;;;;2.67;2.45;;;11.40;97.80;;;;;;4894945;29;20232;-71
2023/03/18 03:25:34;;;;;;;4.80;1.88;;;11.30;98.00;;;;;;4893762;29;20203;-71
2023/03/18 03:28:01;;;;;;;2.80;1.77;;;11.20;98.10;;;;;;4896009;29;20206;-71
2023/03/18 03:30:29;;;;;;;1.98;1.55;;;11.20;98.00;;;;;;4894153;29;20667;-71
2023/03/18 03:32:57;;;;;;;3.25;2.10;;;11.10;97.30;;;;;;4896705;29;20698;-71
2023/03/18 03:35:25;;;;;;;2.38;1.80;;;11.20;96.80;;;;;;4895301;29;20583;-71
2023/03/18 03:37:52;;;;;;;2.03;1.52;;;11.20;96.50;;;;;;4890701;29;20213;-71
2023/03/18 03:40:20;;;;;;;1.85;1.40;;;11.30;96.30;;;;;;4887196;29;20190;-71
2023/03/18 03:42:48;;;;;;;2.58;1.67;;;11.40;95.70;;;;;;4894053;29;20224;-71
2023/03/18 03:45:17;;;;;;;1.67;1.58;;;11.40;95.50;;;;;;4894657;29;20568;-71
2023/03/18 03:47:46;;;;;;;2.75;1.67;;;11.50;95.20;;;;;;4896056;29;20308;-71
2023/03/18 03:50:15;;;;;;;1.75;1.65;;;11.60;95.50;;;;;;4893271;29;20207;-71
2023/03/18 03:52:42;;;;;;;3.30;2.58;;;11.60;96.20;;;;;;4895734;29;20254;-71
2023/03/18 03:55:12;;;;;;;2.55;2.10;;;11.60;96.00;;;;;;4891362;29;20278;-71
2023/03/18 03:57:40;;;;;;;5.35;2.25;;;11.60;96.20;;;;;;4887450;29;20667;-71
2023/03/18 04:00:12;;;;;;;2.40;2.20;;;11.60;96.40;;;;;;4894148;29;20201;-71
2023/03/18 04:02:39;;;;;;;2.42;1.95;;;11.50;96.60;;;;;;4894857;29;20234;-71
2023/03/18 04:05:07;;;;;;;3.65;2.50;;;11.40;96.70;;;;;;4892431;29;20257;-71
2023/03/18 04:07:36;;;;;;;3.30;2.70;;;11.40;96.80;;;;;;4896646;29;20202;-71
2023/03/18 04:10:04;;;;;;;2.88;2.33;;;11.30;97.00;;;;;;4889263;29;20204;-71
2023/03/18 04:12:31;;;;;;;2.40;2.20;;;11.30;97.10;;;;;;4895140;29;20586;-71
2023/03/18 04:14:58;;;;;;;4.25;2.40;;;11.30;97.10;;;;;;4894024;29;20211;-71
2023/03/18 04:17:25;;;;;;;3.00;2.70;;;11.20;97.10;;;;;;4882839;29;20286;-71
2023/03/18 04:19:53;;;;;;;4.10;2.75;;;11.20;97.30;;;;;;4894015;29;20281;-71
2023/03/18 04:22:20;;;;;;;4.05;2.85;;;11.10;97.40;;;;;;4896778;29;20242;-72
2023/03/18 04:24:49;;;;;;;2.90;2.40;;;11.10;97.70;;;;;;4892989;29;20229;-71
2023/03/18 04:27:17;;;;;;;3.67;3.08;;;11.00;98.00;;;;;;4893677;29;20209;-71
2023/03/18 04:29:45;;;;;;;3.40;3.10;;;10.90;98.20;;;;;;4895764;29;20274;-71
2023/03/18 04:32:13;;;;;;;4.13;3.58;;;10.80;98.40;;;;;;4905838;29;20222;-71
2023/03/18 04:34:40;;;;;;;3.72;3.42;;;10.70;98.90;;;;;;4894951;29;20293;-71
2023/03/18 04:37:07;;;;;;;3.67;3.35;;;10.60;99.40;;;;;;4887511;29;20206;-71
2023/03/18 04:39:35;;;;;;;4.47;3.13;;;10.60;99.50;;;;;;4896158;29;20241;-71
2023/03/18 04:42:03;;;;;;;6.20;3.75;;;10.50;99.60;;;;;;4893420;29;20261;-71
2023/03/18 04:44:30;;;;;;;4.07;3.58;;;10.40;99.90;;;;;;4893691;29;20368;-72
2023/03/18 04:46:58;;;;;;;5.47;4.43;;;10.40;99.90;;;;;;4895150;29;20214;-72
2023/03/18 04:49:25;;;;;;;5.43;4.60;;;10.30;99.90;;;;;;4895075;29;20203;-71
2023/03/18 04:51:53;;;;;;;5.20;4.70;;;10.30;99.90;;;;;;4895380;29;20198;-71
2023/03/18 04:54:21;;;;;;;4.45;4.05;;;10.20;99.90;;;;;;4894276;29;20204;-71
2023/03/18 04:56:48;;;;;;;5.35;4.68;;;10.30;99.90;;;;;;4895607;29;20206;-71
2023/03/18 04:59:17;;;;;;;5.57;4.28;;;10.20;99.90;;;;;;4894811;29;20674;-70
2023/03/18 05:01:44;;;;;;;6.15;4.47;;;10.20;99.90;;;;;;4893494;29;20674;-70
2023/03/18 05:04:11;;;;;;;5.53;4.35;;;10.20;99.90;;;;;;4892183;29;20724;-71
2023/03/18 05:06:38;;;;;;;4.05;3.75;;;10.10;99.90;;;;;;4896579;29;20245;-71
2023/03/18 05:09:05;;;;;;;6.88;3.95;;;10.10;99.90;;;;;;4880017;29;20206;-71
2023/03/18 05:11:33;;;;;;;5.20;3.83;;;10.00;99.90;;;;;;4892496;29;20670;-71
2023/03/18 05:14:00;;;;;;;4.75;3.85;;;10.00;99.90;;;;;;4889145;29;20205;-71
2023/03/18 05:16:29;;;;;;;5.35;4.07;;;9.90;99.90;;;;;;4892959;29;20202;-71
2023/03/18 05:18:56;;;;;;;6.88;4.20;;;9.90;99.90;;;;;;4895219;29;20202;-71
2023/03/18 05:21:24;;;;;;;5.28;4.78;;;9.90;99.90;;;;;;4887920;29;20666;-71
2023/03/18 05:23:51;;;;;;;5.15;4.63;;;9.90;99.90;;;;;;4893302;29;20720;-71
2023/03/18 05:26:18;;;;;;;6.00;4.25;;;9.80;99.90;;;;;;4892709;29;20205;-71
2023/03/18 05:28:45;;;;;;;5.85;4.32;;;9.80;99.90;;;;;;4887040;29;20601;-72
2023/03/18 05:31:13;;;;;;;5.22;3.95;;;9.80;99.90;;;;;;4884139;29;20206;-71
2023/03/18 05:33:41;;;;;;;4.00;3.65;;;9.80;99.90;;;;;;4893043;29;20231;-71
2023/03/18 05:36:09;;;;;;;4.35;3.42;;;9.80;99.90;;;;;;4896180;29;20395;-71
2023/03/18 05:38:36;;;;;;;4.78;4.22;;;9.80;99.90;;;;;;4894537;29;20271;-71
2023/03/18 05:41:03;;;;;;;3.40;3.10;;;9.70;99.90;;;;;;4893383;29;20957;-71
2023/03/18 05:43:30;;;;;;;4.32;3.90;;;9.70;99.90;;;;;;4895079;29;20245;-71
2023/03/18 05:45:57;;;;;;;10.90;3.85;;;9.70;99.90;;;;;;4886071;29;20847;-71
2023/03/18 05:48:25;;;;;;;5.88;3.67;;;9.70;99.90;;;;;;4894756;29;20289;-72
2023/03/18 05:50:54;;;;;;;3.30;3.00;;;9.70;99.90;;;;;;4893803;29;20285;-71
2023/03/18 05:53:21;;;;;;;3.40;3.10;;;9.70;99.90;;;;;;4895163;29;20224;-72
2023/03/18 05:55:48;;;;;;;3.92;2.70;;;9.70;99.90;;;;;;4894554;29;20301;-71
2023/03/18 05:58:15;;;;;;;3.78;3.30;;;9.70;99.90;;;;;;4895950;29;20206;-72
2023/03/18 06:00:42;;;;;;;5.03;3.20;;;9.60;99.90;;;;;;4894488;29;20209;-70
2023/03/18 06:03:09;;;;;;;4.72;2.90;;;9.60;99.90;;;;;;4890766;29;21980;-72
2023/03/18 06:05:36;;;;;;;4.30;3.80;;;9.50;99.90;;;;;;4893851;29;20716;-71
2023/03/18 06:08:05;;;;;;;3.97;3.50;;;9.40;99.90;;;;;;4886675;29;20242;-71
2023/03/18 06:10:32;;;;;;;4.85;3.40;;;9.40;99.90;;;;;;4888383;29;20234;-71
2023/03/18 06:12:59;;;;;;;3.42;3.13;;;9.40;99.90;;;;;;4894751;29;20222;-71
2023/03/18 06:15:27;;;;;;;3.55;3.10;;;9.30;99.90;;;;;;4892836;29;20647;-71
2023/03/18 06:17:53;;;;;;;4.68;3.13;;;9.30;99.90;;;;;;4894210;29;20202;-71
2023/03/18 06:20:22;;;;;;;5.13;3.85;;;9.30;99.90;;;;;;4897840;29;20233;-71
2023/03/18 06:22:49;;;;;;;5.70;3.83;;;9.30;99.90;;;;;;4897464;29;20229;-72
2023/03/18 06:25:20;;;;;;;4.20;3.05;;;9.30;99.90;;;;;;4895544;29;20234;-72
2023/03/18 06:27:47;;;;;;;4.28;3.90;;;9.20;99.90;;;;;;4897234;29;20254;-71
2023/03/18 06:30:16;;;;;;;3.63;3.25;;;9.30;99.90;;;;;;4898877;29;20202;-71
2023/03/18 06:32:44;;;;;;;4.22;3.40;;;9.20;99.90;;;;;;4895948;29;20674;-72
2023/03/18 06:35:12;;;;;;;3.60;3.10;;;9.30;99.90;;;;;;4897682;29;20651;-71
2023/03/18 06:37:39;;;;;;;3.70;3.40;;;9.30;99.90;;;;;;4899247;29;20532;-71
2023/03/18 06:40:08;;;;;;;5.13;3.33;;;9.30;99.90;;;;;;4898970;29;20212;-71
2023/03/18 06:42:36;;;;;;;4.85;3.53;;;9.40;99.90;;;;;;4897447;29;20214;-71
2023/03/18 06:45:05;;;;;;;3.95;3.35;;;9.40;99.90;;;;;;4895534;29;20329;-70
2023/03/18 06:47:32;;;;;;;6.40;3.70;;;9.40;99.90;;;;;;4898397;29;20224;-71
2023/03/18 06:49:59;;;;;;;4.05;3.65;;;9.50;99.90;;;;;;4896310;29;20212;-70
2023/03/18 06:52:26;;;;;;;4.30;3.90;;;9.50;99.90;;;;;;4898122;29;20223;-74
2023/03/18 06:54:53;;;;;;;4.75;3.65;;;9.60;99.90;;;;;;4898528;29;20301;-72
2023/03/18 06:57:20;;;;;;;4.40;4.00;;;9.60;99.90;;;;;;4889836;29;20202;-72
2023/03/18 06:59:49;;;;;;;4.97;3.72;;;9.80;99.90;;;;;;4893671;29;20202;-72
2023/03/18 07:02:16;;;;;;;4.20;3.58;;;9.90;99.90;;;;;;4898160;29;20219;-72
2023/03/18 07:04:43;;;;;;;4.00;3.70;;;9.90;99.90;;;;;;4893730;29;20317;-78
2023/03/18 07:07:11;;;;;;;4.30;3.90;;;10.00;99.90;;;;;;4898206;29;20285;-80
2023/03/18 07:09:39;;;;;;;4.07;3.67;;;10.20;99.90;;;;;;4896026;29;20202;-79
2023/03/18 07:12:07;;;;;;;4.60;4.20;;;10.50;99.90;;;;;;4894958;29;20213;-78
2023/03/18 07:14:34;;;;;;;4.65;4.13;;;10.60;99.90;;;;;;4901159;29;20202;-78
2023/03/18 07:17:02;;;;;;;5.07;3.70;;;10.90;99.90;;;;;;4898887;29;20266;-78
2023/03/18 07:19:31;;;;;;;5.18;4.28;;;11.00;99.90;;;;;;4897481;29;20259;-79
2023/03/18 07:21:58;;;;;;;6.35;5.45;;;11.10;99.90;;;;;;4907886;29;20277;-78
2023/03/18 07:24:27;;;;;;;5.65;5.15;;;11.20;99.90;;;;;;4908278;29;20286;-85
2023/03/18 07:26:54;;;;;;;5.50;5.05;;;11.20;99.90;;;;;;4896454;29;20206;-81
2023/03/18 07:29:21;;;;;;;8.20;5.68;;;11.40;99.90;;;;;;4895910;29;20206;-81
2023/03/18 07:31:48;;;;;;;6.72;6.07;;;11.00;99.90;;;;;;4897230;29;20226;-82
2023/03/18 07:34:18;;;;;;;5.80;5.20;;;10.90;99.90;;;;;;4896017;29;20210;-83
2023/03/18 07:36:45;;;;;;;8.90;7.13;;;11.10;99.90;;;;;;4898776;29;20213;-82
2023/03/18 07:39:13;;;;;;;9.05;6.13;;;11.30;99.90;;;;;;4898723;29;20237;-83
2023/03/18 07:41:40;;;;;;;5.80;5.30;;;11.10;99.90;;;;;;4899295;29;20210;-82
2023/03/18 07:44:09;;;;;;;5.03;4.53;;;11.30;99.90;;;;;;4887801;29;20650;-82
2023/03/18 07:46:36;;;;;;;6.28;4.53;;;11.50;99.90;;;;;;4897884;29;20347;-82
2023/03/18 07:49:03;;;;;;;5.57;4.70;;;11.60;99.90;;;;;;4898011;29;20326;-82
2023/03/18 07:51:31;;;;;;;4.40;4.00;;;11.90;99.90;;;;;;4898614;29;20435;-81
2023/03/18 07:53:58;;;;;;;4.70;3.47;;;12.10;99.90;;;;;;4892444;29;20465;-81
2023/03/18 07:56:26;;;;;;;4.83;3.90;;;12.50;99.90;;;;;;4895192;29;20500;-77
2023/03/18 07:58:53;;;;;;;4.60;3.80;;;12.70;99.90;;;;;;4894728;29;20464;-77
2023/03/18 08:01:20;;;;;;;5.33;3.27;;;13.00;99.90;;;;;;4899607;29;20497;-86
2023/03/18 08:03:47;;;;;;;3.60;3.30;;;13.20;99.90;;;;;;4897287;29;20464;-86
2023/03/18 08:06:16;;;;;;;3.67;3.37;;;13.70;99.90;;;;;;4898977;29;20914;-88
2023/03/18 08:08:44;;;;;;;5.60;3.30;;;13.60;99.90;;;;;;4899853;29;20461;-86
2023/03/18 08:11:11;;;;;;;4.67;3.80;;;13.60;99.90;;;;;;4900196;29;20450;-86
2023/03/18 08:13:39;;;;;;;5.10;3.50;;;13.80;99.90;;;;;;4899651;29;20552;-87
2023/03/18 08:16:07;;;;;;;3.70;3.17;;;13.90;99.90;;;;;;4901437;29;20450;-87
2023/03/18 08:18:35;;;;;;;4.03;3.57;;;14.30;99.90;;;;;;4914122;29;20495;-86
2023/03/18 08:21:02;;;;;;;3.87;3.57;;;14.80;99.90;;;;;;4916615;29;20503;-86
2023/03/18 08:23:29;;;;;;;3.80;3.40;;;15.00;99.40;;;;;;4917960;29;20478;-86
2023/03/18 08:25:58;;;;;;;4.47;3.67;;;15.30;99.10;;;;;;4910302;29;20510;-86
2023/03/18 08:28:26;;;;;;;4.80;4.00;;;15.30;99.00;;;;;;4903902;29;20462;-87
2023/03/18 08:30:57;;;;;;;4.70;3.30;;;15.40;98.50;;;;;;4903867;29;20511;-86
2023/03/18 08:33:24;;;;;;;6.23;3.50;;;15.30;98.60;;;;;;4899458;29;20873;-86
2023/03/18 08:35:52;;;;;;;3.57;3.00;;;15.30;99.10;;;;;;4898225;29;20561;-84
2023/03/18 08:38:19;;;;;;;4.83;3.37;;;15.60;98.90;;;;;;4899459;29;20545;-86
2023/03/18 08:40:47;;;;;;;3.60;3.07;;;16.00;97.90;;;;;;4898877;29;20446;-87
2023/03/18 08:43:15;;;;;;;5.00;3.30;;;16.30;97.70;;;;;;4897577;29;20835;-86
2023/03/18 08:45:43;;;;;;;3.43;2.90;;;16.50;96.40;;;;;;4898317;29;20490;-87
2023/03/18 08:48:10;;;;;;;3.43;3.10;;;16.70;96.40;;;;;;4897156;29;20469;-86
2023/03/18 08:50:37;;;;;;;4.67;3.10;;;16.80;95.90;;;;;;4898210;29;20537;-86
2023/03/18 08:53:05;;;;;;;3.43;3.13;;;17.10;96.10;;;;;;4896684;29;20481;-86
2023/03/18 08:55:35;;;;;;;3.90;3.07;;;17.40;95.30;;;;;;4897795;29;20445;-86
2023/03/18 08:58:04;;;;;;;3.63;3.30;;;17.60;95.00;;;;;;4898094;29;20458;-87
2023/03/18 09:00:33;;;;;;;4.50;3.00;;;17.90;94.80;;;;;;4897492;29;20512;-87
2023/03/18 09:03:01;;;;;;;4.03;3.13;;;18.30;94.10;;;;;;4896350;29;20488;-88
2023/03/18 09:05:29;;;;;;;4.47;3.50;;;18.60;93.80;;;;;;4896976;29;20524;-88
2023/03/18 09:07:57;;;;;;;4.80;3.03;;;18.70;92.60;;;;;;4900397;29;20836;-86
2023/03/18 09:10:24;;;;;;;3.77;2.80;;;18.80;92.20;;;;;;4897596;29;20497;-87
2023/03/18 09:12:51;;;;;;;2.63;2.43;;;18.90;91.40;;;;;;4896429;29;20488;-87
2023/03/18 09:15:19;;;;;;;3.13;2.53;;;19.40;90.40;;;;;;4895301;29;20529;-88
2023/03/18 09:17:48;;;;;;;2.60;2.40;;;19.70;89.40;;;;;;4897313;29;20481;-87
2023/03/18 09:20:16;;;;;;;5.40;2.50;;;20.10;88.00;;;;;;4907696;29;20435;-87
2023/03/18 09:22:46;;;;;;;3.07;2.20;;;20.50;85.90;;;;;;4897075;29;20990;-87
2023/03/18 09:25:13;;;;;;;3.33;2.20;;;20.90;86.00;;;;;;4896551;29;20832;-86
2023/03/18 09:27:41;;;;;;;2.70;2.37;;;21.20;84.00;;;;;;4897962;29;20946;-86
2023/03/18 09:30:09;;;;;;;2.60;2.33;;;21.50;83.30;;;;;;4896504;29;20818;-86
2023/03/18 09:32:37;;;;;;;3.93;2.33;;;21.80;81.60;;;;;;4896795;29;20983;-87
2023/03/18 09:35:08;;;;;;;2.50;2.03;;;22.00;79.90;;;;;;4896293;29;20466;-86
2023/03/18 09:37:35;;;;;;;2.87;2.37;;;22.20;77.00;;;;;;4895508;29;20470;-86
2023/03/18 09:40:03;;;;;;;2.30;2.00;;;22.50;76.50;;;;;;4895894;29;20466;-87
2023/03/18 09:42:46;;;;;;;2.30;2.10;;;22.90;75.30;;;;;;4896159;29;20983;-87
2023/03/18 09:45:20;;;;;;;4.07;1.90;;;23.30;72.50;;;;;;4896135;29;20541;-87
2023/03/18 09:48:09;;;;;;;2.67;1.90;;;23.80;70.30;;;;;;4896668;29;20538;-87
2023/03/18 09:50:42;;;;;;;3.53;1.73;;;24.20;69.10;;;;;;4895271;29;20489;-85
2023/03/18 09:53:16;;;;;;;3.40;2.17;;;24.50;65.40;;;;;;4883266;29;20475;-85
2023/03/18 09:55:46;;;;;;;1.83;1.40;;;24.70;65.30;;;;;;4900605;29;20458;-86
2023/03/18 09:58:23;;;;;;;1.90;1.80;;;24.80;62.20;;;;;;4900870;29;20446;-86
2023/03/18 10:00:55;;;;;;;2.57;1.70;;;24.90;61.80;;;;;;4900896;29;20959;-85
2023/03/18 10:03:31;;;;;;;3.83;2.40;;;24.90;61.00;;;;;;4900835;29;20990;-85
2023/03/18 10:06:05;;;;;;;2.47;1.93;;;24.50;64.40;;;;;;4900800;29;20524;-85
2023/03/18 10:08:43;;;;;;;3.00;1.83;;;24.50;62.20;;;;;;4903748;29;20446;-86
2023/03/18 10:11:21;;;;;;;3.93;2.00;;;24.70;61.70;;;;;;4905285;29;20529;-85
2023/03/18 10:13:58;;;;;;;2.10;1.70;;;25.10;61.20;;;;;;4908317;29;20519;-85
2023/03/18 10:16:28;;;;;;;1.77;1.60;;;25.00;61.10;;;;;;4903834;29;20458;-85
2023/03/18 10:18:56;;;;;;;2.00;1.80;;;25.10;61.00;;;;;;4919096;29;20586;-85
2023/03/18 10:21:35;;;;;;;2.97;1.77;;;25.10;59.80;;;;;;4917562;29;20451;-85
2023/03/18 10:24:15;;;;;;;2.40;1.60;;;25.00;59.70;;;;;;4915691;29;20476;-85
2023/03/18 10:26:49;;;;;;;3.23;1.73;;;25.20;60.20;;;;;;4884423;29;20553;-86
2023/03/18 10:29:32;;;;;;;1.73;1.33;;;25.40;58.60;;;;;;4881281;29;21227;-86
2023/03/18 10:32:08;;;;;;;1.97;1.60;;;24.80;58.20;;;;;;4881043;29;20560;-85
2023/03/18 10:34:41;;;;;;;3.10;1.67;;;24.60;59.80;;;;;;4899013;29;20505;-85
2023/03/18 10:37:18;;;;;;;2.40;1.83;;;25.00;58.50;;;;;;4899364;29;20545;-85
2023/03/18 10:39:48;;;;;;;1.63;1.40;;;25.60;57.70;;;;;;4899068;29;20470;-86
2023/03/18 10:42:21;;;;;;;3.10;1.60;;;25.90;56.50;;;;;;4899417;29;20954;-86
2023/03/18 10:44:50;;;;;;;2.00;1.60;;;25.60;56.60;;;;;;4899143;29;20466;-86
2023/03/18 10:47:21;;;;;;;2.90;1.77;;;25.50;56.60;;;;;;4898965;29;20493;-86
2023/03/18 10:50:01;;;;;;;2.03;1.80;;;25.20;56.50;;;;;;4899257;29;20451;-85
2023/03/18 10:52:35;;;;;;;2.33;1.60;;;25.20;56.50;;;;;;4898935;29;20474;-85
2023/03/18 10:55:03;;;;;;;2.90;1.33;;;24.70;55.80;;;;;;4899180;29;21335;-85
2023/03/18 10:57:31;;;;;;;4.17;1.53;;;25.00;56.00;;;;;;4898324;29;20458;-85
2023/03/18 10:59:58;;;;;;;1.83;1.70;;;24.70;56.70;;;;;;4899332;29;20449;-85
2023/03/18 11:02:31;;;;;;;1.87;1.67;;;24.20;56.40;;;;;;4898375;29;20482;-85
2023/03/18 11:05:03;;;;;;;1.50;1.40;;;24.30;57.70;;;;;;4898526;29;20455;-85
2023/03/18 11:07:32;;;;;;;5.00;1.60;;;24.80;56.40;;;;;;4898762;29;20978;-85
2023/03/18 11:10:13;;;;;;;3.37;1.70;;;24.80;56.30;;;;;;4898988;29;20446;-85
2023/03/18 11:12:42;;;;;;;2.43;1.70;;;24.70;57.20;;;;;;4898480;29;20468;-85
2023/03/18 11:15:11;;;;;;;2.23;1.70;;;25.20;56.70;;;;;;4897786;29;20879;-86
2023/03/18 11:17:39;;;;;;;2.23;1.80;;;25.50;56.70;;;;;;4897553;29;20473;-85
2023/03/18 11:20:20;;;;;;;2.40;1.60;;;26.00;56.10;;;;;;4899082;29;20451;-85
2023/03/18 11:22:51;;;;;;;2.63;1.50;;;26.50;55.00;;;;;;4898541;29;20474;-85
2023/03/18 11:25:22;;;;;;;2.70;1.80;;;26.80;55.80;;;;;;4898514;29;20497;-86
2023/03/18 11:27:51;;;;;;;3.80;1.70;;;26.50;54.90;;;;;;4898589;29;20470;-84
2023/03/18 11:30:21;;;;;;;3.00;1.70;;;26.30;54.40;;;;;;4896719;29;20897;-85
2023/03/18 11:32:54;;;;;;;2.63;1.63;;;26.00;54.20;;;;;;4898036;29;20481;-84
2023/03/18 11:35:23;;;;;;;2.53;1.70;;;25.30;54.90;;;;;;4898352;29;20891;-85
2023/03/18 11:37:52;;;;;;;1.70;1.60;;;24.30;56.70;;;;;;4898553;29;20835;-84
2023/03/18 11:40:25;;;;;;;2.90;2.33;;;24.40;57.70;;;;;;4898695;29;20446;-84
2023/03/18 11:42:57;;;;;;;1.83;1.50;;;24.40;55.80;;;;;;4896799;29;20482;-84
2023/03/18 11:45:43;;;;;;;1.83;1.73;;;24.40;56.10;;;;;;4897291;29;20474;-85
2023/03/18 11:48:17;;;;;;;3.20;1.70;;;24.90;56.40;;;;;;4897793;29;20549;-85
2023/03/18 11:51:21;;;;;;;2.73;1.73;;;25.70;55.90;;;;;;4898274;29;20445;-86
2023/03/18 11:54:04;;;;;;;2.93;1.90;;;26.00;55.60;;;;;;4897695;29;20454;-85
2023/03/18 11:56:34;;;;;;;2.90;1.73;;;25.70;53.40;;;;;;4897871;29;21038;-87
2023/03/18 11:59:15;;;;;;;3.23;1.77;;;25.70;53.80;;;;;;4896621;29;20548;-87
2023/03/18 12:01:51;;;;;;;2.10;1.90;;;25.80;53.40;;;;;;4897794;29;20458;-85
2023/03/18 12:04:52;;;;;;;1.53;1.43;;;26.00;54.10;;;;;;4898187;29;20453;-86
2023/03/18 12:07:41;;;;;;;1.70;1.50;;;26.70;53.50;;;;;;4894866;29;20554;-86
2023/03/18 12:10:19;;;;;;;1.60;1.40;;;27.30;51.20;;;;;;4898475;29;20466;-86
2023/03/18 12:12:59;;;;;;;1.57;1.47;;;27.30;51.80;;;;;;4897719;29;21256;-85
2023/03/18 12:15:41;;;;;;;3.37;1.37;;;25.30;51.40;;;;;;4896204;29;20458;-85
2023/03/18 12:18:22;;;;;;;2.00;1.70;;;24.40;53.10;;;;;;4897516;29;20450;-85
2023/03/18 12:20:52;;;;;;;2.90;2.00;;;24.40;53.10;;;;;;4898061;29;20457;-85
2023/03/18 12:23:48;;;;;;;2.77;1.43;;;24.50;53.00;;;;;;4897994;29;20557;-86
2023/03/18 12:26:23;;;;;;;2.30;1.70;;;24.50;53.10;;;;;;4897302;29;20839;-86
2023/03/18 12:29:33;;;;;;;2.33;1.60;;;25.30;52.60;;;;;;4897133;29;20464;-87
2023/03/18 12:32:09;;;;;;;4.60;1.50;;;26.10;50.30;;;;;;4896413;29;20485;-85
2023/03/18 12:35:00;;;;;;;1.73;1.40;;;26.50;50.50;;;;;;4897501;29;20450;-86
2023/03/18 12:37:35;;;;;;;1.40;1.30;;;27.20;50.10;;;;;;4888807;29;20481;-85
2023/03/18 12:40:24;;;;;;;2.47;1.50;;;27.70;48.50;;;;;;4897756;29;20438;-86
2023/03/18 12:43:06;;;;;;;2.83;1.60;;;27.60;47.70;;;;;;4896869;29;20483;-86
2023/03/18 12:45:38;;;;;;;2.87;2.03;;;27.40;47.60;;;;;;4897107;29;20501;-86
2023/03/18 12:48:12;;;;;;;2.83;1.47;;;27.00;47.70;;;;;;4897508;29;20544;-85
2023/03/18 12:50:43;;;;;;;2.30;1.30;;;26.80;48.20;;;;;;4897435;29;20537;-86
2023/03/18 12:53:16;;;;;;;2.27;1.60;;;26.40;47.20;;;;;;4897585;29;21012;-85
2023/03/18 12:55:46;;;;;;;1.60;1.40;;;26.60;48.70;;;;;;4897558;29;20503;-86
2023/03/18 12:58:19;;;;;;;2.80;1.60;;;26.70;47.60;;;;;;4896672;29;20501;-85
2023/03/18 13:00:53;;;;;;;1.67;1.53;;;26.40;47.40;;;;;;4896848;29;20819;-85
2023/03/18 13:03:31;;;;;;;3.50;1.97;;;26.20;48.00;;;;;;4896196;29;20462;-84